Time;durP1;ratioP1;P1;durP2;ratioP2;P2;SDS_P1;SDS_P2;PMS_P1;PMS_P2;Temp;Humidity;BMP_temperature;BMP_pressure;BME280_temperature;BME280_humidity;BME280_pressure;Samples;Min_cycle;Max_cycle;Signal;HPM_P1;HPM_P2
2023/12/22 00:02:09;;;;;;;0.00;0.00;;;;;;;;;;4872587;29;20600;-63
2023/12/22 00:04:36;;;;;;;0.03;0.03;;;;;;;;;;4872439;29;20214;-62
2023/12/22 00:07:03;;;;;;;0.00;0.00;;;;;;;;;;4871640;29;20221;-62
2023/12/22 00:09:30;;;;;;;0.00;0.00;;;;;;;;;;4872493;29;20409;-62
2023/12/22 00:11:58;;;;;;;0.00;0.00;;;;;;;;;;4871410;29;20316;-62
2023/12/22 00:14:25;;;;;;;0.47;0.30;;;;;;;;;;4871362;29;20202;-62
2023/12/22 00:16:52;;;;;;;0.00;0.00;;;;;;;;;;4871852;29;20214;-62
2023/12/22 00:19:19;;;;;;;0.00;0.00;;;;;;;;;;4871968;29;20233;-62
2023/12/22 00:21:46;;;;;;;0.03;0.03;;;;;;;;;;4871310;29;20241;-62
2023/12/22 00:24:14;;;;;;;0.00;0.00;;;;;;;;;;4872567;29;20222;-62
2023/12/22 00:26:41;;;;;;;0.10;0.10;;;;;;;;;;4871826;29;20218;-62
2023/12/22 00:29:09;;;;;;;0.10;0.10;;;;;;;;;;4861320;29;20219;-62
2023/12/22 00:31:36;;;;;;;0.50;0.00;;;;;;;;;;4871506;29;20217;-62
2023/12/22 00:34:03;;;;;;;1.27;0.00;;;;;;;;;;4871398;29;20220;-62
2023/12/22 00:36:30;;;;;;;0.20;0.10;;;;;;;;;;4870325;29;20201;-61
2023/12/22 00:38:57;;;;;;;0.00;0.00;;;;;;;;;;4870586;29;20217;-62
2023/12/22 00:41:24;;;;;;;0.10;0.10;;;;;;;;;;4872236;29;20348;-62
2023/12/22 00:43:51;;;;;;;0.10;0.10;;;;;;;;;;4871190;29;20220;-62
2023/12/22 00:46:20;;;;;;;0.10;0.10;;;;;;;;;;4869116;29;20680;-63
2023/12/22 00:48:47;;;;;;;0.20;0.20;;;;;;;;;;4866067;29;20287;-62
2023/12/22 00:51:16;;;;;;;0.40;0.20;;;;;;;;;;4871709;29;20584;-62
2023/12/22 00:53:43;;;;;;;0.10;0.10;;;;;;;;;;4857794;29;20237;-62
2023/12/22 00:56:12;;;;;;;0.10;0.10;;;;;;;;;;4871673;29;20305;-62
2023/12/22 00:58:39;;;;;;;0.80;0.17;;;;;;;;;;4869401;29;20214;-62
2023/12/22 01:01:06;;;;;;;2.27;0.30;;;;;;;;;;4871706;29;20217;-62
2023/12/22 01:03:35;;;;;;;0.20;0.20;;;;;;;;;;4872770;29;20225;-62
2023/12/22 01:06:02;;;;;;;1.17;0.30;;;;;;;;;;4874773;29;20213;-62
2023/12/22 01:08:29;;;;;;;1.00;0.27;;;;;;;;;;4870868;29;20214;-61
2023/12/22 01:10:56;;;;;;;0.37;0.20;;;;;;;;;;4874641;29;20214;-62
2023/12/22 01:13:23;;;;;;;0.17;0.17;;;;;;;;;;4874973;29;20839;-61
2023/12/22 01:15:50;;;;;;;1.50;0.20;;;;;;;;;;4874178;29;20220;-62
2023/12/22 01:18:17;;;;;;;0.93;0.33;;;;;;;;;;4867603;29;20257;-62
2023/12/22 01:20:45;;;;;;;0.50;0.30;;;;;;;;;;4874674;29;20310;-62
2023/12/22 01:23:12;;;;;;;0.23;0.20;;;;;;;;;;4874527;29;20209;-62
2023/12/22 01:25:39;;;;;;;0.20;0.20;;;;;;;;;;4874188;29;20217;-62
2023/12/22 01:28:06;;;;;;;0.73;0.10;;;;;;;;;;4874696;29;20588;-61
2023/12/22 01:30:34;;;;;;;1.97;0.10;;;;;;;;;;4874509;29;20218;-62
2023/12/22 01:33:01;;;;;;;0.40;0.20;;;;;;;;;;4874190;29;20233;-62
2023/12/22 01:35:28;;;;;;;0.93;0.27;;;;;;;;;;4874548;29;20210;-62
2023/12/22 01:37:57;;;;;;;0.73;0.20;;;;;;;;;;4873830;29;20214;-62
2023/12/22 01:40:24;;;;;;;0.30;0.30;;;;;;;;;;4872995;29;20305;-62
2023/12/22 01:42:51;;;;;;;0.83;0.20;;;;;;;;;;4874165;29;20221;-61
2023/12/22 01:45:18;;;;;;;2.10;0.50;;;;;;;;;;4874233;29;20214;-62
2023/12/22 01:47:46;;;;;;;0.10;0.10;;;;;;;;;;4873979;29;20205;-62
2023/12/22 01:50:14;;;;;;;0.10;0.10;;;;;;;;;;4874636;29;20619;-62
2023/12/22 01:52:42;;;;;;;0.50;0.20;;;;;;;;;;4867783;29;20237;-62
2023/12/22 01:55:11;;;;;;;0.30;0.07;;;;;;;;;;4874057;29;20210;-61
2023/12/22 01:57:40;;;;;;;1.40;0.10;;;;;;;;;;4857795;29;20210;-61
2023/12/22 02:00:08;;;;;;;0.20;0.20;;;;;;;;;;4874536;29;20210;-62
2023/12/22 02:02:35;;;;;;;0.77;0.10;;;;;;;;;;4872298;29;20699;-62
2023/12/22 02:05:03;;;;;;;0.10;0.10;;;;;;;;;;4869268;29;20305;-62
2023/12/22 02:10:34;;;;;;;1.27;0.10;;;;;;;;;;4864175;29;20679;-62
2023/12/22 02:13:01;;;;;;;0.10;0.10;;;;;;;;;;4869995;29;20233;-62
2023/12/22 02:15:28;;;;;;;0.73;0.20;;;;;;;;;;4871257;29;20262;-62
2023/12/22 02:17:57;;;;;;;0.63;0.10;;;;;;;;;;4873195;29;20230;-62
2023/12/22 02:20:24;;;;;;;0.93;0.03;;;;;;;;;;4874045;29;20210;-62
2023/12/22 02:22:54;;;;;;;0.77;0.30;;;;;;;;;;4871862;29;20252;-62
2023/12/22 02:25:21;;;;;;;0.20;0.20;;;;;;;;;;4870232;29;20221;-62
2023/12/22 02:27:50;;;;;;;0.83;0.30;;;;;;;;;;4873557;29;20217;-62
2023/12/22 02:30:21;;;;;;;2.10;0.20;;;;;;;;;;4873805;29;20213;-62
2023/12/22 02:32:50;;;;;;;0.10;0.10;;;;;;;;;;4874249;29;20332;-62
2023/12/22 02:35:18;;;;;;;0.17;0.17;;;;;;;;;;4873167;29;20210;-62
2023/12/22 02:37:47;;;;;;;0.20;0.20;;;;;;;;;;4873467;29;20233;-62
2023/12/22 02:40:15;;;;;;;0.37;0.17;;;;;;;;;;4873699;29;20210;-62
2023/12/22 02:42:43;;;;;;;0.30;0.30;;;;;;;;;;4866677;29;20199;-62
2023/12/22 02:45:15;;;;;;;0.77;0.30;;;;;;;;;;4869874;29;20236;-62
2023/12/22 02:47:42;;;;;;;1.80;0.13;;;;;;;;;;4873198;29;20206;-62
2023/12/22 02:50:09;;;;;;;0.40;0.40;;;;;;;;;;4873368;29;20217;-62
2023/12/22 02:52:36;;;;;;;0.97;0.40;;;;;;;;;;4873265;29;20233;-62
2023/12/22 02:55:04;;;;;;;0.77;0.20;;;;;;;;;;4873007;29;20607;-62
2023/12/22 02:57:32;;;;;;;1.47;0.20;;;;;;;;;;4873715;29;20376;-62
2023/12/22 02:59:59;;;;;;;2.10;0.30;;;;;;;;;;4872489;29;20724;-62
2023/12/22 03:02:26;;;;;;;0.77;0.20;;;;;;;;;;4872700;29;20213;-62
2023/12/22 03:04:53;;;;;;;0.20;0.20;;;;;;;;;;4873494;29;20214;-62
2023/12/22 03:07:26;;;;;;;0.20;0.10;;;;;;;;;;4873530;29;20790;-61
2023/12/22 03:09:53;;;;;;;0.43;0.30;;;;;;;;;;4873013;29;20222;-62
2023/12/22 03:12:20;;;;;;;0.33;0.30;;;;;;;;;;4872700;29;20681;-61
2023/12/22 03:14:49;;;;;;;0.53;0.30;;;;;;;;;;4872911;29;20209;-62
2023/12/22 03:17:16;;;;;;;0.30;0.30;;;;;;;;;;4873329;29;20213;-62
2023/12/22 03:19:43;;;;;;;0.40;0.30;;;;;;;;;;4873002;29;20217;-61
2023/12/22 03:22:10;;;;;;;1.30;0.50;;;;;;;;;;4872475;29;20246;-62
2023/12/22 03:24:38;;;;;;;0.53;0.30;;;;;;;;;;4873350;29;20664;-62
2023/12/22 03:27:05;;;;;;;0.23;0.23;;;;;;;;;;4872382;29;20265;-62
2023/12/22 03:29:32;;;;;;;0.97;0.33;;;;;;;;;;4872391;29;20587;-62
2023/12/22 03:32:00;;;;;;;0.80;0.30;;;;;;;;;;4873165;29;20213;-62
2023/12/22 03:34:27;;;;;;;2.57;0.50;;;;;;;;;;4872577;29;20240;-62
2023/12/22 03:36:54;;;;;;;0.20;0.20;;;;;;;;;;4872050;29;20577;-62
2023/12/22 03:39:21;;;;;;;0.40;0.40;;;;;;;;;;4873330;29;20222;-62
2023/12/22 03:41:48;;;;;;;1.20;0.37;;;;;;;;;;4856753;29;20214;-62
2023/12/22 03:44:15;;;;;;;2.83;0.60;;;;;;;;;;4864796;29;20209;-62
2023/12/22 03:46:43;;;;;;;3.13;0.50;;;;;;;;;;4872803;29;20206;-62
2023/12/22 03:49:11;;;;;;;2.40;0.60;;;;;;;;;;4871420;29;20213;-62
2023/12/22 03:51:41;;;;;;;1.00;0.37;;;;;;;;;;4872340;29;20210;-62
2023/12/22 03:54:08;;;;;;;2.70;0.50;;;;;;;;;;4872446;29;20234;-64
2023/12/22 03:56:35;;;;;;;0.40;0.40;;;;;;;;;;4872693;29;20243;-62
2023/12/22 03:59:02;;;;;;;2.70;0.60;;;;;;;;;;4872009;29;20217;-62
2023/12/22 04:01:29;;;;;;;3.13;0.60;;;;;;;;;;4871712;29;20214;-63
2023/12/22 04:03:56;;;;;;;2.67;0.67;;;;;;;;;;4872382;29;20669;-62
2023/12/22 04:06:24;;;;;;;3.73;0.50;;;;;;;;;;4872095;29;20225;-62
2023/12/22 04:08:51;;;;;;;3.07;0.70;;;;;;;;;;4871938;29;20222;-62
2023/12/22 04:11:18;;;;;;;0.63;0.40;;;;;;;;;;4872489;29;20676;-63
2023/12/22 04:13:45;;;;;;;1.43;0.57;;;;;;;;;;4872427;29;20233;-62
2023/12/22 04:16:12;;;;;;;2.93;0.60;;;;;;;;;;4872108;29;20285;-62
2023/12/22 04:18:39;;;;;;;1.37;0.63;;;;;;;;;;4872591;29;20233;-62
2023/12/22 04:21:06;;;;;;;1.70;0.63;;;;;;;;;;4871393;29;20252;-62
2023/12/22 04:23:36;;;;;;;2.37;0.67;;;;;;;;;;4867130;29;20555;-62
2023/12/22 04:26:03;;;;;;;5.70;0.80;;;;;;;;;;4871763;29;20220;-62
2023/12/22 04:28:30;;;;;;;2.90;0.53;;;;;;;;;;4872555;29;20217;-62
2023/12/22 04:30:57;;;;;;;0.40;0.30;;;;;;;;;;4871603;29;20228;-62
2023/12/22 04:33:24;;;;;;;0.40;0.40;;;;;;;;;;4867063;29;20913;-61
2023/12/22 04:35:51;;;;;;;1.90;0.60;;;;;;;;;;4872182;29;20226;-62
2023/12/22 04:38:18;;;;;;;2.70;0.60;;;;;;;;;;4873169;29;20643;-62
2023/12/22 04:40:46;;;;;;;2.07;0.80;;;;;;;;;;4860674;29;20218;-62
2023/12/22 04:43:13;;;;;;;2.00;0.77;;;;;;;;;;4864812;29;20216;-62
2023/12/22 04:45:40;;;;;;;2.80;0.40;;;;;;;;;;4874246;29;20760;-62
2023/12/22 04:48:08;;;;;;;0.90;0.33;;;;;;;;;;4874958;29;20206;-62
2023/12/22 04:50:35;;;;;;;5.90;1.00;;;;;;;;;;4875244;29;20202;-62
2023/12/22 04:53:02;;;;;;;3.27;1.60;;;;;;;;;;4874976;29;20281;-61
2023/12/22 04:55:29;;;;;;;3.03;0.90;;;;;;;;;;4875059;29;20225;-62
2023/12/22 04:57:57;;;;;;;5.60;1.53;;;;;;;;;;4875153;29;20715;-62
2023/12/22 05:00:24;;;;;;;2.67;1.03;;;;;;;;;;4874817;29;20217;-62
2023/12/22 05:02:51;;;;;;;2.13;0.83;;;;;;;;;;4870639;29;20301;-63
2023/12/22 05:05:18;;;;;;;0.93;0.60;;;;;;;;;;4875651;29;20218;-62
2023/12/22 05:07:45;;;;;;;3.70;0.97;;;;;;;;;;4866425;29;21022;-62
2023/12/22 05:10:12;;;;;;;1.03;0.40;;;;;;;;;;4871642;29;20217;-62
2023/12/22 05:12:39;;;;;;;1.67;0.50;;;;;;;;;;4874621;29;20732;-62
2023/12/22 05:15:08;;;;;;;2.63;0.40;;;;;;;;;;4861697;29;20234;-62
2023/12/22 05:17:35;;;;;;;4.43;0.57;;;;;;;;;;4874649;29;20217;-62
2023/12/22 05:20:03;;;;;;;0.80;0.60;;;;;;;;;;4874728;29;20209;-62
2023/12/22 05:22:31;;;;;;;1.80;0.63;;;;;;;;;;4874629;29;20272;-62
2023/12/22 05:24:59;;;;;;;1.07;0.70;;;;;;;;;;4874453;29;20217;-62
2023/12/22 05:27:28;;;;;;;0.60;0.60;;;;;;;;;;4875448;29;20225;-62
2023/12/22 05:29:55;;;;;;;0.77;0.40;;;;;;;;;;4872928;29;20216;-62
2023/12/22 05:32:23;;;;;;;2.87;0.73;;;;;;;;;;4874451;29;20687;-62
2023/12/22 05:34:50;;;;;;;2.10;0.80;;;;;;;;;;4874218;29;20245;-61
2023/12/22 05:37:17;;;;;;;2.07;0.77;;;;;;;;;;4875084;29;20205;-62
2023/12/22 05:39:45;;;;;;;2.27;0.60;;;;;;;;;;4874041;29;20590;-61
2023/12/22 05:42:12;;;;;;;4.37;1.00;;;;;;;;;;4874410;29;20421;-62
2023/12/22 05:44:39;;;;;;;1.47;0.63;;;;;;;;;;4873864;29;20217;-61
2023/12/22 05:47:06;;;;;;;4.73;0.90;;;;;;;;;;4874192;29;20305;-61
2023/12/22 05:49:35;;;;;;;3.13;0.80;;;;;;;;;;4874311;29;20206;-61
2023/12/22 05:52:02;;;;;;;1.57;0.70;;;;;;;;;;4875053;29;20800;-60
2023/12/22 05:54:29;;;;;;;2.10;0.50;;;;;;;;;;4874372;29;20226;-60
2023/12/22 05:56:56;;;;;;;3.23;0.73;;;;;;;;;;4873247;29;20221;-61
2023/12/22 05:59:23;;;;;;;2.37;0.40;;;;;;;;;;4874861;29;20214;-61
2023/12/22 06:01:54;;;;;;;0.50;0.37;;;;;;;;;;4874051;29;20206;-60
2023/12/22 06:04:21;;;;;;;3.40;0.40;;;;;;;;;;4874150;29;20214;-60
2023/12/22 06:06:49;;;;;;;2.77;0.60;;;;;;;;;;4874490;29;20225;-60
2023/12/22 06:09:18;;;;;;;1.63;0.83;;;;;;;;;;4874385;29;20233;-61
2023/12/22 06:11:47;;;;;;;0.73;0.30;;;;;;;;;;4873263;29;20309;-61
2023/12/22 06:14:14;;;;;;;0.70;0.50;;;;;;;;;;4871328;29;20330;-61
2023/12/22 06:16:41;;;;;;;0.43;0.43;;;;;;;;;;4873952;29;20667;-62
2023/12/22 06:19:09;;;;;;;3.37;0.63;;;;;;;;;;4869658;29;20297;-61
2023/12/22 06:21:38;;;;;;;2.03;0.60;;;;;;;;;;4872874;29;20282;-60
2023/12/22 06:24:07;;;;;;;2.00;0.70;;;;;;;;;;4871691;29;20317;-61
2023/12/22 06:26:34;;;;;;;1.77;0.60;;;;;;;;;;4867013;29;20283;-60
2023/12/22 06:29:03;;;;;;;2.83;0.63;;;;;;;;;;4872566;29;20217;-61
2023/12/22 06:31:30;;;;;;;2.87;1.10;;;;;;;;;;4870270;29;20674;-61
2023/12/22 06:34:00;;;;;;;2.57;0.70;;;;;;;;;;4870430;29;20233;-61
2023/12/22 06:36:27;;;;;;;0.87;0.57;;;;;;;;;;4865743;29;20237;-60
2023/12/22 06:38:55;;;;;;;1.40;0.40;;;;;;;;;;4872063;29;20743;-60
2023/12/22 06:41:24;;;;;;;0.77;0.60;;;;;;;;;;4873086;29;20247;-61
2023/12/22 06:43:51;;;;;;;3.10;0.77;;;;;;;;;;4872806;29;20225;-61
2023/12/22 06:46:18;;;;;;;5.77;0.83;;;;;;;;;;4869731;29;20234;-60
2023/12/22 06:48:45;;;;;;;1.10;0.83;;;;;;;;;;4872958;29;20751;-60
2023/12/22 06:51:19;;;;;;;4.03;0.90;;;;;;;;;;4867171;29;20213;-61
2023/12/22 06:53:46;;;;;;;1.23;0.87;;;;;;;;;;4863723;29;20789;-61
2023/12/22 06:56:17;;;;;;;0.50;0.43;;;;;;;;;;4873003;29;20220;-61
2023/12/22 06:58:46;;;;;;;1.77;0.90;;;;;;;;;;4872057;29;20221;-61
2023/12/22 07:01:13;;;;;;;3.57;1.27;;;;;;;;;;4872457;29;20221;-61
2023/12/22 07:03:40;;;;;;;1.80;0.90;;;;;;;;;;4872692;29;20241;-61
2023/12/22 07:06:08;;;;;;;1.57;0.93;;;;;;;;;;4871175;29;20213;-61
2023/12/22 07:08:35;;;;;;;3.27;0.87;;;;;;;;;;4866609;29;20665;-61
2023/12/22 07:11:02;;;;;;;5.10;1.47;;;;;;;;;;4872783;29;20214;-61
2023/12/22 07:13:29;;;;;;;4.83;1.20;;;;;;;;;;4873100;29;20629;-61
2023/12/22 07:15:57;;;;;;;4.97;1.57;;;;;;;;;;4872472;29;20213;-61
2023/12/22 07:18:25;;;;;;;5.03;1.20;;;;;;;;;;4872658;29;20226;-61
2023/12/22 07:20:52;;;;;;;4.57;1.20;;;;;;;;;;4872706;29;20255;-61
2023/12/22 07:23:19;;;;;;;1.90;0.90;;;;;;;;;;4872504;29;20213;-61
2023/12/22 07:25:46;;;;;;;4.73;1.20;;;;;;;;;;4872393;29;20217;-62
2023/12/22 07:28:13;;;;;;;5.27;1.23;;;;;;;;;;4872852;29;20216;-61
2023/12/22 07:30:40;;;;;;;3.20;1.03;;;;;;;;;;4859994;29;20206;-61
2023/12/22 07:33:08;;;;;;;4.17;1.93;;;;;;;;;;4861690;29;20703;-61
2023/12/22 07:35:35;;;;;;;3.73;1.23;;;;;;;;;;4869495;29;20233;-61
2023/12/22 07:38:03;;;;;;;2.40;0.93;;;;;;;;;;4862573;29;20202;-61
2023/12/22 07:40:30;;;;;;;2.27;1.47;;;;;;;;;;4872104;29;20233;-61
2023/12/22 07:42:57;;;;;;;2.33;1.27;;;;;;;;;;4866745;29;20716;-61
2023/12/22 07:45:25;;;;;;;4.43;1.23;;;;;;;;;;4872857;29;20201;-62
2023/12/22 07:47:52;;;;;;;3.97;1.00;;;;;;;;;;4872304;29;20219;-61
2023/12/22 07:50:21;;;;;;;4.03;1.00;;;;;;;;;;4870011;29;20213;-61
2023/12/22 07:52:50;;;;;;;3.93;1.13;;;;;;;;;;4872364;29;20214;-61
2023/12/22 07:55:17;;;;;;;2.10;1.17;;;;;;;;;;4872627;29;20245;-62
2023/12/22 07:57:45;;;;;;;3.23;1.13;;;;;;;;;;4871468;29;20257;-62
2023/12/22 08:00:12;;;;;;;5.43;0.80;;;;;;;;;;4872065;29;20224;-62
2023/12/22 08:02:39;;;;;;;2.00;1.30;;;;;;;;;;4872694;29;20224;-62
2023/12/22 08:05:06;;;;;;;3.07;0.90;;;;;;;;;;4871450;29;20214;-62
2023/12/22 08:07:35;;;;;;;4.53;0.93;;;;;;;;;;4860687;29;20212;-62
2023/12/22 08:10:02;;;;;;;2.50;1.03;;;;;;;;;;4864302;29;20221;-61
2023/12/22 08:12:31;;;;;;;2.30;1.03;;;;;;;;;;4871868;29;20229;-63
2023/12/22 08:14:58;;;;;;;2.73;0.63;;;;;;;;;;4875481;29;20242;-61
2023/12/22 08:17:25;;;;;;;2.30;0.80;;;;;;;;;;4875594;29;20242;-62
2023/12/22 08:19:53;;;;;;;3.43;0.73;;;;;;;;;;4876458;29;20209;-61
2023/12/22 08:22:20;;;;;;;2.10;0.70;;;;;;;;;;4875783;29;20241;-64
2023/12/22 08:24:48;;;;;;;1.20;0.67;;;;;;;;;;4875596;29;20665;-62
2023/12/22 08:27:15;;;;;;;4.30;0.83;;;;;;;;;;4876027;29;20293;-61
2023/12/22 08:29:42;;;;;;;1.70;0.27;;;;;;;;;;4875637;29;20241;-62
2023/12/22 08:32:09;;;;;;;0.80;0.77;;;;;;;;;;4875740;29;20598;-62
2023/12/22 08:34:36;;;;;;;1.30;0.50;;;;;;;;;;4875992;29;20233;-62
2023/12/22 08:37:04;;;;;;;0.93;0.80;;;;;;;;;;4876052;29;20217;-63
2023/12/22 08:39:31;;;;;;;5.60;1.30;;;;;;;;;;4875067;29;20218;-62
2023/12/22 08:41:59;;;;;;;1.67;1.03;;;;;;;;;;4875871;29;20364;-61
2023/12/22 08:44:27;;;;;;;2.60;0.90;;;;;;;;;;4876008;29;20224;-63
2023/12/22 08:46:54;;;;;;;1.10;1.00;;;;;;;;;;4875669;29;20764;-68
2023/12/22 08:49:21;;;;;;;5.83;3.30;;;;;;;;;;4874574;29;20214;-69
2023/12/22 08:51:48;;;;;;;12.60;6.37;;;;;;;;;;4875789;29;20257;-69
2023/12/22 08:54:15;;;;;;;38.77;14.77;;;;;;;;;;4874667;29;20213;-68
2023/12/22 08:56:42;;;;;;;28.23;8.60;;;;;;;;;;4864142;29;20214;-69
2023/12/22 08:59:11;;;;;;;4.93;2.43;;;;;;;;;;4875330;29;20205;-69
2023/12/22 09:01:38;;;;;;;3.43;1.70;;;;;;;;;;4869216;29;20206;-69
2023/12/22 09:04:05;;;;;;;2.50;1.63;;;;;;;;;;4874961;29;20240;-68
2023/12/22 09:06:32;;;;;;;3.90;1.63;;;;;;;;;;4875281;29;20437;-79
2023/12/22 09:08:59;;;;;;;3.50;1.53;;;;;;;;;;4875211;29;20217;-63
2023/12/22 09:11:26;;;;;;;8.50;3.90;;;;;;;;;;4874216;29;20596;-63
2023/12/22 09:13:53;;;;;;;11.73;3.60;;;;;;;;;;4874663;29;20214;-63
2023/12/22 09:16:24;;;;;;;4.83;2.60;;;;;;;;;;4875196;29;20231;-63
2023/12/22 09:18:52;;;;;;;3.97;1.20;;;;;;;;;;4873050;29;20594;-63
2023/12/22 09:21:19;;;;;;;3.53;1.60;;;;;;;;;;4868342;29;20332;-61
2023/12/22 09:23:46;;;;;;;2.17;1.60;;;;;;;;;;4871371;29;20202;-62
2023/12/22 09:26:13;;;;;;;3.33;1.30;;;;;;;;;;4870261;29;20216;-63
2023/12/22 09:28:40;;;;;;;3.03;1.30;;;;;;;;;;4872463;29;20237;-62
2023/12/22 09:31:08;;;;;;;3.73;1.00;;;;;;;;;;4860251;29;20617;-63
2023/12/22 09:33:36;;;;;;;2.27;0.97;;;;;;;;;;4873330;29;20218;-62
2023/12/22 09:36:04;;;;;;;3.13;0.80;;;;;;;;;;4863109;29;20237;-62
2023/12/22 09:38:31;;;;;;;4.23;0.90;;;;;;;;;;4861046;29;20218;-63
2023/12/22 09:40:58;;;;;;;2.70;0.60;;;;;;;;;;4858248;29;20763;-63
2023/12/22 09:43:25;;;;;;;2.03;0.70;;;;;;;;;;4871140;29;20213;-63
2023/12/22 09:45:52;;;;;;;4.73;1.10;;;;;;;;;;4870625;29;20677;-62
2023/12/22 09:48:26;;;;;;;1.23;0.60;;;;;;;;;;4870560;29;20217;-63
2023/12/22 09:50:55;;;;;;;3.43;0.70;;;;;;;;;;4874217;29;20265;-63
2023/12/22 09:53:22;;;;;;;1.50;0.80;;;;;;;;;;4874123;29;20831;-62
2023/12/22 09:55:51;;;;;;;3.77;0.73;;;;;;;;;;4873145;29;20225;-63
2023/12/22 09:58:18;;;;;;;5.00;0.80;;;;;;;;;;4874020;29;20217;-63
2023/12/22 10:00:46;;;;;;;1.70;0.90;;;;;;;;;;4874438;29;20218;-62
2023/12/22 10:03:13;;;;;;;2.37;0.60;;;;;;;;;;4869373;29;20759;-62
2023/12/22 10:05:41;;;;;;;1.93;0.83;;;;;;;;;;4864136;29;20218;-62
2023/12/22 10:08:11;;;;;;;4.80;1.50;;;;;;;;;;4862122;29;20214;-62
2023/12/22 10:10:39;;;;;;;3.27;1.70;;;;;;;;;;4864345;29;20209;-62
2023/12/22 10:13:09;;;;;;;4.87;1.63;;;;;;;;;;4866441;29;20747;-62
2023/12/22 10:15:36;;;;;;;8.40;1.80;;;;;;;;;;4870002;29;20272;-62
2023/12/22 10:18:04;;;;;;;9.07;1.53;;;;;;;;;;4860295;29;20238;-62
2023/12/22 10:20:31;;;;;;;9.57;1.87;;;;;;;;;;4870310;29;20969;-62
2023/12/22 10:22:58;;;;;;;11.30;1.97;;;;;;;;;;4870421;29;20248;-62
2023/12/22 10:25:30;;;;;;;9.93;2.00;;;;;;;;;;4869438;29;20214;-62
2023/12/22 10:27:57;;;;;;;7.83;2.00;;;;;;;;;;4871005;29;20213;-62
2023/12/22 10:30:24;;;;;;;9.43;1.87;;;;;;;;;;4872056;29;20236;-61
2023/12/22 10:32:52;;;;;;;5.57;2.10;;;;;;;;;;4871114;29;20218;-61
2023/12/22 10:35:19;;;;;;;12.33;1.97;;;;;;;;;;4868941;29;20261;-62
2023/12/22 10:37:47;;;;;;;4.60;2.00;;;;;;;;;;4864334;29;20566;-62
2023/12/22 10:40:14;;;;;;;5.80;1.47;;;;;;;;;;4866964;29;20645;-60
2023/12/22 10:42:43;;;;;;;7.03;1.83;;;;;;;;;;4870607;29;20222;-61
2023/12/22 10:45:10;;;;;;;4.30;1.73;;;;;;;;;;4870360;29;20225;-61
2023/12/22 10:47:39;;;;;;;3.53;2.13;;;;;;;;;;4871262;29;20223;-61
2023/12/22 10:50:06;;;;;;;7.90;2.27;;;;;;;;;;4870847;29;20225;-61
2023/12/22 10:52:33;;;;;;;7.67;2.03;;;;;;;;;;4870880;29;20225;-61
2023/12/22 10:55:02;;;;;;;7.97;1.80;;;;;;;;;;4871037;29;20760;-61
2023/12/22 10:57:29;;;;;;;6.50;1.70;;;;;;;;;;4870666;29;20294;-61
2023/12/22 10:59:58;;;;;;;9.30;1.83;;;;;;;;;;4867260;29;20222;-64
2023/12/22 11:02:28;;;;;;;5.63;1.60;;;;;;;;;;4861980;29;20214;-61
2023/12/22 11:04:58;;;;;;;11.13;1.33;;;;;;;;;;4873669;29;20218;-61
2023/12/22 11:07:26;;;;;;;8.40;2.03;;;;;;;;;;4870836;29;20294;-61
2023/12/22 11:09:55;;;;;;;3.80;1.77;;;;;;;;;;4872758;29;20210;-61
2023/12/22 11:12:23;;;;;;;6.40;1.70;;;;;;;;;;4872457;29;20213;-61
2023/12/22 11:14:50;;;;;;;6.13;1.67;;;;;;;;;;4873421;29;20218;-61
2023/12/22 11:17:21;;;;;;;5.87;1.87;;;;;;;;;;4872617;29;20304;-61
2023/12/22 11:19:49;;;;;;;5.67;1.40;;;;;;;;;;4857998;29;20607;-61
2023/12/22 11:22:18;;;;;;;8.77;1.70;;;;;;;;;;4866577;29;20245;-61
2023/12/22 11:24:48;;;;;;;2.63;1.00;;;;;;;;;;4871736;29;20217;-61
2023/12/22 11:27:18;;;;;;;5.00;1.40;;;;;;;;;;4871833;29;20250;-61
2023/12/22 11:29:46;;;;;;;4.03;1.60;;;;;;;;;;4869308;29;20210;-61
2023/12/22 11:32:15;;;;;;;5.33;1.77;;;;;;;;;;4871076;29;20237;-61
2023/12/22 11:34:44;;;;;;;2.83;1.23;;;;;;;;;;4868686;29;20210;-61
2023/12/22 11:37:13;;;;;;;6.73;1.43;;;;;;;;;;4870921;29;20244;-61
2023/12/22 11:39:40;;;;;;;8.10;1.17;;;;;;;;;;4870341;29;20206;-62
2023/12/22 11:42:08;;;;;;;3.83;1.50;;;;;;;;;;4872401;29;20676;-62
2023/12/22 11:44:36;;;;;;;5.83;1.53;;;;;;;;;;4872440;29;20265;-62
2023/12/22 11:47:06;;;;;;;7.50;1.60;;;;;;;;;;4871999;29;20632;-61
2023/12/22 11:49:34;;;;;;;6.77;1.57;;;;;;;;;;4871344;29;20452;-62
2023/12/22 11:52:10;;;;;;;3.63;1.20;;;;;;;;;;4871929;29;20206;-59
2023/12/22 11:54:47;;;;;;;3.27;0.70;;;;;;;;;;4872100;29;20209;-62
2023/12/22 11:57:33;;;;;;;4.53;1.03;;;;;;;;;;4860900;29;20261;-61
2023/12/22 12:00:03;;;;;;;3.23;0.80;;;;;;;;;;4868879;29;20700;-62
2023/12/22 12:02:32;;;;;;;5.00;0.93;;;;;;;;;;4872236;29;20205;-62
2023/12/22 12:05:00;;;;;;;2.23;0.93;;;;;;;;;;4871655;29;20675;-62
2023/12/22 12:07:48;;;;;;;2.33;1.37;;;;;;;;;;4872728;29;20241;-62
2023/12/22 12:10:37;;;;;;;2.77;0.77;;;;;;;;;;4869528;29;20213;-62
2023/12/22 12:13:07;;;;;;;2.60;1.10;;;;;;;;;;4870735;29;20681;-62
2023/12/22 12:15:34;;;;;;;2.73;0.60;;;;;;;;;;4871292;29;20237;-62
2023/12/22 12:18:01;;;;;;;3.43;0.83;;;;;;;;;;4871564;29;20237;-62
2023/12/22 12:20:28;;;;;;;1.90;1.00;;;;;;;;;;4871803;29;20217;-62
2023/12/22 12:22:57;;;;;;;1.10;0.77;;;;;;;;;;4871914;29;20241;-62
2023/12/22 12:25:25;;;;;;;5.40;1.17;;;;;;;;;;4871863;29;20221;-62
2023/12/22 12:27:52;;;;;;;2.50;0.80;;;;;;;;;;4871810;29;20210;-62
2023/12/22 12:30:19;;;;;;;2.93;0.73;;;;;;;;;;4871106;29;20221;-62
2023/12/22 12:32:47;;;;;;;1.13;0.80;;;;;;;;;;4871936;29;20696;-62
2023/12/22 12:35:14;;;;;;;2.83;0.77;;;;;;;;;;4872061;29;20345;-62
2023/12/22 12:37:42;;;;;;;1.57;1.20;;;;;;;;;;4872032;29;20262;-62
2023/12/22 12:40:12;;;;;;;2.60;1.20;;;;;;;;;;4871677;29;20214;-62
2023/12/22 12:42:39;;;;;;;3.00;1.27;;;;;;;;;;4870045;29;20577;-62
2023/12/22 12:45:07;;;;;;;2.87;0.93;;;;;;;;;;4866189;29;20218;-62
2023/12/22 12:47:34;;;;;;;1.40;0.60;;;;;;;;;;4865715;29;20213;-62
2023/12/22 12:50:01;;;;;;;2.97;0.70;;;;;;;;;;4868206;29;20230;-61
2023/12/22 12:52:29;;;;;;;1.53;0.73;;;;;;;;;;4862307;29;20241;-61
2023/12/22 12:54:58;;;;;;;2.00;0.83;;;;;;;;;;4864266;29;20221;-62
2023/12/22 12:57:26;;;;;;;5.10;0.90;;;;;;;;;;4863797;29;20333;-61
2023/12/22 12:59:53;;;;;;;0.77;0.63;;;;;;;;;;4858112;29;20217;-62
2023/12/22 13:02:22;;;;;;;2.10;0.60;;;;;;;;;;4868445;29;20677;-61
2023/12/22 13:04:49;;;;;;;2.17;0.63;;;;;;;;;;4865705;29;20262;-62
2023/12/22 13:07:25;;;;;;;0.60;0.60;;;;;;;;;;4858981;29;20734;-61
2023/12/22 13:09:54;;;;;;;1.07;0.97;;;;;;;;;;4866759;29;20311;-68
2023/12/22 13:12:21;;;;;;;0.60;0.60;;;;;;;;;;4874351;29;21082;-61
2023/12/22 13:14:50;;;;;;;0.40;0.40;;;;;;;;;;4874233;29;20753;-61
2023/12/22 13:17:17;;;;;;;0.90;0.90;;;;;;;;;;4873593;29;20244;-61
2023/12/22 13:19:44;;;;;;;1.03;0.53;;;;;;;;;;4870877;29;20217;-62
2023/12/22 13:22:11;;;;;;;1.57;0.70;;;;;;;;;;4873801;29;20245;-61
2023/12/22 13:24:38;;;;;;;0.43;0.30;;;;;;;;;;4874095;29;20768;-61
2023/12/22 13:27:06;;;;;;;0.30;0.30;;;;;;;;;;4867322;29;20212;-62
2023/12/22 13:29:44;;;;;;;0.57;0.30;;;;;;;;;;4873744;29;20304;-62
2023/12/22 13:32:17;;;;;;;0.20;0.20;;;;;;;;;;4863715;29;20238;-62
2023/12/22 13:34:48;;;;;;;0.30;0.30;;;;;;;;;;4867776;29;20233;-62
2023/12/22 13:37:15;;;;;;;0.20;0.20;;;;;;;;;;4865981;29;20233;-62
2023/12/22 13:39:42;;;;;;;0.30;0.30;;;;;;;;;;4873790;29;20597;-62
2023/12/22 13:42:16;;;;;;;0.20;0.20;;;;;;;;;;4855389;29;20218;-62
2023/12/22 13:44:44;;;;;;;0.30;0.20;;;;;;;;;;4855628;29;20785;-63
2023/12/22 13:47:11;;;;;;;0.10;0.10;;;;;;;;;;4854983;29;20221;-62
2023/12/22 13:49:39;;;;;;;0.30;0.30;;;;;;;;;;4871512;29;20218;-62
2023/12/22 13:52:07;;;;;;;0.40;0.20;;;;;;;;;;4872576;29;20226;-62
2023/12/22 13:54:34;;;;;;;0.20;0.20;;;;;;;;;;4873841;29;20222;-62
2023/12/22 13:57:02;;;;;;;0.10;0.10;;;;;;;;;;4873681;29;20727;-63
2023/12/22 13:59:33;;;;;;;0.50;0.20;;;;;;;;;;4872954;29;20225;-62
2023/12/22 14:02:02;;;;;;;0.30;0.20;;;;;;;;;;4870954;29;20724;-62
2023/12/22 14:04:29;;;;;;;0.13;0.13;;;;;;;;;;4869687;29;20217;-62
2023/12/22 14:06:58;;;;;;;0.97;0.30;;;;;;;;;;4873648;29;20213;-62
2023/12/22 14:09:25;;;;;;;0.30;0.30;;;;;;;;;;4873456;29;20206;-62
2023/12/22 14:11:52;;;;;;;0.10;0.10;;;;;;;;;;4858699;29;20232;-62
2023/12/22 14:14:19;;;;;;;0.10;0.10;;;;;;;;;;4865577;29;20214;-61
2023/12/22 14:16:46;;;;;;;0.10;0.10;;;;;;;;;;4869665;29;20236;-62
2023/12/22 14:19:14;;;;;;;0.20;0.20;;;;;;;;;;4873952;29;20245;-62
2023/12/22 14:21:41;;;;;;;0.30;0.23;;;;;;;;;;4869035;29;20274;-63
2023/12/22 14:24:09;;;;;;;0.30;0.20;;;;;;;;;;4873591;29;20688;-62
2023/12/22 14:26:51;;;;;;;1.60;0.20;;;;;;;;;;4873920;29;20218;-62
2023/12/22 14:29:18;;;;;;;0.30;0.23;;;;;;;;;;4873731;29;20229;-62
2023/12/22 14:31:45;;;;;;;0.40;0.20;;;;;;;;;;4872522;29;20212;-63
2023/12/22 14:34:14;;;;;;;3.10;2.70;;;;;;;;;;4873494;29;20210;-66
2023/12/22 14:36:41;;;;;;;2.03;1.93;;;;;;;;;;4872900;29;20787;-62
2023/12/22 14:39:10;;;;;;;3.53;3.23;;;;;;;;;;4873446;29;20210;-62
2023/12/22 14:41:37;;;;;;;1.80;0.50;;;;;;;;;;4861643;29;20682;-62
2023/12/22 14:44:05;;;;;;;0.73;0.30;;;;;;;;;;4867064;29;20210;-62
2023/12/22 14:46:32;;;;;;;0.30;0.30;;;;;;;;;;4863716;29;20329;-62
2023/12/22 14:48:59;;;;;;;0.43;0.43;;;;;;;;;;4854434;29;20245;-62
2023/12/22 14:51:26;;;;;;;0.87;0.40;;;;;;;;;;4869311;29;20225;-62